sensor_id;sensor_type;location;lat;lon;timestamp;temperature;humidity
16823;DHT22;8528;49.976;11.858;2022-10-22T00:00:30;11.90;99.90
16823;DHT22;8528;49.976;11.858;2022-10-22T00:02:57;11.90;99.90
16823;DHT22;8528;49.976;11.858;2022-10-22T00:05:26;11.90;99.90
16823;DHT22;8528;49.976;11.858;2022-10-22T00:07:52;11.90;99.90
16823;DHT22;8528;49.976;11.858;2022-10-22T00:10:19;11.80;99.90
16823;DHT22;8528;49.976;11.858;2022-10-22T00:12:46;11.80;99.90
16823;DHT22;8528;49.976;11.858;2022-10-22T00:15:13;11.80;99.90
16823;DHT22;8528;49.976;11.858;2022-10-22T00:17:39;11.80;99.90
16823;DHT22;8528;49.976;11.858;2022-10-22T00:20:08;11.70;99.90
16823;DHT22;8528;49.976;11.858;2022-10-22T00:22:35;11.70;99.90
16823;DHT22;8528;49.976;11.858;2022-10-22T00:25:02;11.70;99.90
16823;DHT22;8528;49.976;11.858;2022-10-22T00:27:29;11.80;99.90
16823;DHT22;8528;49.976;11.858;2022-10-22T00:29:56;11.70;99.90
16823;DHT22;8528;49.976;11.858;2022-10-22T00:32:23;11.70;99.90
16823;DHT22;8528;49.976;11.858;2022-10-22T00:34:50;11.70;99.90
16823;DHT22;8528;49.976;11.858;2022-10-22T00:37:16;11.70;99.90
16823;DHT22;8528;49.976;11.858;2022-10-22T00:39:43;11.70;99.90
16823;DHT22;8528;49.976;11.858;2022-10-22T00:42:20;11.70;99.90
16823;DHT22;8528;49.976;11.858;2022-10-22T00:47:43;11.70;99.90
16823;DHT22;8528;49.976;11.858;2022-10-22T00:52:58;11.70;99.90
16823;DHT22;8528;49.976;11.858;2022-10-22T00:55:32;11.70;99.90
16823;DHT22;8528;49.976;11.858;2022-10-22T00:58:00;11.70;99.90
16823;DHT22;8528;49.976;11.858;2022-10-22T01:00:28;11.70;99.90
16823;DHT22;8528;49.976;11.858;2022-10-22T01:02:56;11.80;99.90
16823;DHT22;8528;49.976;11.858;2022-10-22T01:05:27;11.80;99.90
16823;DHT22;8528;49.976;11.858;2022-10-22T01:07:55;11.70;99.90
16823;DHT22;8528;49.976;11.858;2022-10-22T01:10:37;11.70;99.90
16823;DHT22;8528;49.976;11.858;2022-10-22T01:13:30;11.70;99.90
16823;DHT22;8528;49.976;11.858;2022-10-22T01:16:36;11.70;99.90
16823;DHT22;8528;49.976;11.858;2022-10-22T01:19:38;11.70;99.90
16823;DHT22;8528;49.976;11.858;2022-10-22T01:22:19;11.70;99.90
16823;DHT22;8528;49.976;11.858;2022-10-22T01:24:55;11.70;99.90
16823;DHT22;8528;49.976;11.858;2022-10-22T01:30:06;11.70;99.90
16823;DHT22;8528;49.976;11.858;2022-10-22T01:32:42;11.70;99.90
16823;DHT22;8528;49.976;11.858;2022-10-22T01:35:16;11.60;99.90
16823;DHT22;8528;49.976;11.858;2022-10-22T01:37:49;11.70;99.90
16823;DHT22;8528;49.976;11.858;2022-10-22T01:40:19;11.70;99.90
16823;DHT22;8528;49.976;11.858;2022-10-22T01:43:01;11.70;99.90
16823;DHT22;8528;49.976;11.858;2022-10-22T01:45:35;11.70;99.90
16823;DHT22;8528;49.976;11.858;2022-10-22T01:48:30;11.80;99.90
16823;DHT22;8528;49.976;11.858;2022-10-22T01:56:19;11.70;99.90
16823;DHT22;8528;49.976;11.858;2022-10-22T01:59:08;11.70;99.90
16823;DHT22;8528;49.976;11.858;2022-10-22T02:04:27;11.70;99.90
16823;DHT22;8528;49.976;11.858;2022-10-22T02:07:01;11.60;99.90
16823;DHT22;8528;49.976;11.858;2022-10-22T02:09:30;11.60;99.90
16823;DHT22;8528;49.976;11.858;2022-10-22T02:11:59;11.60;99.90
16823;DHT22;8528;49.976;11.858;2022-10-22T02:14:37;11.60;99.90
16823;DHT22;8528;49.976;11.858;2022-10-22T02:17:07;11.60;99.90
16823;DHT22;8528;49.976;11.858;2022-10-22T02:19:56;11.60;99.90
16823;DHT22;8528;49.976;11.858;2022-10-22T02:22:25;11.60;99.90
16823;DHT22;8528;49.976;11.858;2022-10-22T02:24:53;11.60;99.90
16823;DHT22;8528;49.976;11.858;2022-10-22T02:27:21;11.60;99.90
16823;DHT22;8528;49.976;11.858;2022-10-22T02:32:27;11.60;99.90
16823;DHT22;8528;49.976;11.858;2022-10-22T02:34:58;11.50;99.90
16823;DHT22;8528;49.976;11.858;2022-10-22T02:37:27;11.60;99.90
16823;DHT22;8528;49.976;11.858;2022-10-22T02:39:54;11.50;99.90
16823;DHT22;8528;49.976;11.858;2022-10-22T02:42:25;11.60;99.90
16823;DHT22;8528;49.976;11.858;2022-10-22T02:44:53;11.60;99.90
16823;DHT22;8528;49.976;11.858;2022-10-22T02:47:20;11.60;99.90
16823;DHT22;8528;49.976;11.858;2022-10-22T02:49:47;11.70;99.90
16823;DHT22;8528;49.976;11.858;2022-10-22T02:52:14;11.80;99.90
16823;DHT22;8528;49.976;11.858;2022-10-22T02:54:40;11.80;99.90
16823;DHT22;8528;49.976;11.858;2022-10-22T02:57:07;11.80;99.90
16823;DHT22;8528;49.976;11.858;2022-10-22T02:59:34;11.80;99.90
16823;DHT22;8528;49.976;11.858;2022-10-22T03:02:04;11.70;99.90
16823;DHT22;8528;49.976;11.858;2022-10-22T03:04:31;11.70;99.90
16823;DHT22;8528;49.976;11.858;2022-10-22T03:06:57;11.60;99.90
16823;DHT22;8528;49.976;11.858;2022-10-22T03:09:24;11.60;99.90
16823;DHT22;8528;49.976;11.858;2022-10-22T03:11:51;11.60;99.90
16823;DHT22;8528;49.976;11.858;2022-10-22T03:14:18;11.50;99.90
16823;DHT22;8528;49.976;11.858;2022-10-22T03:16:45;11.60;99.90
16823;DHT22;8528;49.976;11.858;2022-10-22T03:19:12;11.60;99.90
16823;DHT22;8528;49.976;11.858;2022-10-22T03:21:48;11.60;99.90
16823;DHT22;8528;49.976;11.858;2022-10-22T03:24:26;11.70;99.90
16823;DHT22;8528;49.976;11.858;2022-10-22T03:26:55;11.70;99.90
16823;DHT22;8528;49.976;11.858;2022-10-22T03:29:24;11.80;99.90
16823;DHT22;8528;49.976;11.858;2022-10-22T03:31:52;11.80;99.90
16823;DHT22;8528;49.976;11.858;2022-10-22T03:34:19;11.80;99.90
16823;DHT22;8528;49.976;11.858;2022-10-22T03:36:48;11.80;99.90
16823;DHT22;8528;49.976;11.858;2022-10-22T03:39:16;11.80;99.90
16823;DHT22;8528;49.976;11.858;2022-10-22T03:41:45;11.70;99.90
16823;DHT22;8528;49.976;11.858;2022-10-22T03:44:16;11.70;99.90
16823;DHT22;8528;49.976;11.858;2022-10-22T03:46:43;11.70;99.90
16823;DHT22;8528;49.976;11.858;2022-10-22T03:49:10;11.60;99.90
16823;DHT22;8528;49.976;11.858;2022-10-22T03:51:37;11.60;99.90
16823;DHT22;8528;49.976;11.858;2022-10-22T03:54:04;11.60;99.90
16823;DHT22;8528;49.976;11.858;2022-10-22T03:56:31;11.50;99.90
16823;DHT22;8528;49.976;11.858;2022-10-22T03:58:59;11.50;99.90
16823;DHT22;8528;49.976;11.858;2022-10-22T04:01:28;11.60;99.90
16823;DHT22;8528;49.976;11.858;2022-10-22T04:03:56;11.60;99.90
16823;DHT22;8528;49.976;11.858;2022-10-22T04:06:23;11.60;99.90
16823;DHT22;8528;49.976;11.858;2022-10-22T04:08:51;11.60;99.90
16823;DHT22;8528;49.976;11.858;2022-10-22T04:11:17;11.60;99.90
16823;DHT22;8528;49.976;11.858;2022-10-22T04:13:44;11.60;99.90
16823;DHT22;8528;49.976;11.858;2022-10-22T04:16:18;11.70;99.90
16823;DHT22;8528;49.976;11.858;2022-10-22T04:18:46;11.60;99.90
16823;DHT22;8528;49.976;11.858;2022-10-22T04:21:16;11.60;99.90
16823;DHT22;8528;49.976;11.858;2022-10-22T04:23:47;11.70;99.90
16823;DHT22;8528;49.976;11.858;2022-10-22T04:26:15;11.60;99.90
16823;DHT22;8528;49.976;11.858;2022-10-22T04:28:43;11.60;99.90
16823;DHT22;8528;49.976;11.858;2022-10-22T04:31:15;11.60;99.90
16823;DHT22;8528;49.976;11.858;2022-10-22T04:33:42;11.70;99.90
16823;DHT22;8528;49.976;11.858;2022-10-22T04:36:10;11.80;99.90
16823;DHT22;8528;49.976;11.858;2022-10-22T04:38:38;11.80;99.90
16823;DHT22;8528;49.976;11.858;2022-10-22T04:41:16;11.80;99.90
16823;DHT22;8528;49.976;11.858;2022-10-22T04:43:43;11.80;99.90
16823;DHT22;8528;49.976;11.858;2022-10-22T04:46:11;11.80;99.90
16823;DHT22;8528;49.976;11.858;2022-10-22T04:48:40;11.70;99.90
16823;DHT22;8528;49.976;11.858;2022-10-22T04:51:09;11.80;99.90
16823;DHT22;8528;49.976;11.858;2022-10-22T04:53:36;11.70;99.90
16823;DHT22;8528;49.976;11.858;2022-10-22T04:56:19;11.70;99.90
16823;DHT22;8528;49.976;11.858;2022-10-22T04:58:48;11.80;99.90
16823;DHT22;8528;49.976;11.858;2022-10-22T05:01:18;11.80;99.90
16823;DHT22;8528;49.976;11.858;2022-10-22T05:03:47;11.80;99.90
16823;DHT22;8528;49.976;11.858;2022-10-22T05:06:15;11.70;99.90
16823;DHT22;8528;49.976;11.858;2022-10-22T05:08:42;11.70;99.90
16823;DHT22;8528;49.976;11.858;2022-10-22T05:11:14;11.60;99.90
16823;DHT22;8528;49.976;11.858;2022-10-22T05:13:41;11.60;99.90
16823;DHT22;8528;49.976;11.858;2022-10-22T05:16:08;11.60;99.90
16823;DHT22;8528;49.976;11.858;2022-10-22T05:18:40;11.50;99.90
16823;DHT22;8528;49.976;11.858;2022-10-22T05:21:12;11.50;99.90
16823;DHT22;8528;49.976;11.858;2022-10-22T05:23:40;11.50;99.90
16823;DHT22;8528;49.976;11.858;2022-10-22T05:26:08;11.50;99.90
16823;DHT22;8528;49.976;11.858;2022-10-22T05:28:36;11.40;99.90
16823;DHT22;8528;49.976;11.858;2022-10-22T05:31:05;11.40;99.90
16823;DHT22;8528;49.976;11.858;2022-10-22T05:33:33;11.30;99.90
16823;DHT22;8528;49.976;11.858;2022-10-22T05:36:01;11.30;99.90
16823;DHT22;8528;49.976;11.858;2022-10-22T05:38:28;11.30;99.90
16823;DHT22;8528;49.976;11.858;2022-10-22T05:41:00;11.30;99.90
16823;DHT22;8528;49.976;11.858;2022-10-22T05:43:36;11.30;99.90
16823;DHT22;8528;49.976;11.858;2022-10-22T05:46:08;11.30;99.90
16823;DHT22;8528;49.976;11.858;2022-10-22T05:48:36;11.30;99.90
16823;DHT22;8528;49.976;11.858;2022-10-22T05:51:08;11.20;99.90
16823;DHT22;8528;49.976;11.858;2022-10-22T05:53:38;11.20;99.90
16823;DHT22;8528;49.976;11.858;2022-10-22T05:56:07;11.10;99.90
16823;DHT22;8528;49.976;11.858;2022-10-22T05:58:35;11.10;99.90
16823;DHT22;8528;49.976;11.858;2022-10-22T06:01:04;11.10;99.90
16823;DHT22;8528;49.976;11.858;2022-10-22T06:03:32;11.10;99.90
16823;DHT22;8528;49.976;11.858;2022-10-22T06:06:01;11.10;99.90
16823;DHT22;8528;49.976;11.858;2022-10-22T06:08:29;11.10;99.90
16823;DHT22;8528;49.976;11.858;2022-10-22T06:10:56;11.10;99.90
16823;DHT22;8528;49.976;11.858;2022-10-22T06:13:23;11.20;99.90
16823;DHT22;8528;49.976;11.858;2022-10-22T06:15:50;11.20;99.90
16823;DHT22;8528;49.976;11.858;2022-10-22T06:18:19;11.20;99.90
16823;DHT22;8528;49.976;11.858;2022-10-22T06:20:46;11.20;99.90
16823;DHT22;8528;49.976;11.858;2022-10-22T06:23:13;11.20;99.90
16823;DHT22;8528;49.976;11.858;2022-10-22T06:25:41;11.30;99.90
16823;DHT22;8528;49.976;11.858;2022-10-22T06:28:09;11.30;99.90
16823;DHT22;8528;49.976;11.858;2022-10-22T06:30:37;11.30;99.90
16823;DHT22;8528;49.976;11.858;2022-10-22T06:33:11;11.30;99.90
16823;DHT22;8528;49.976;11.858;2022-10-22T06:35:39;11.40;99.90
16823;DHT22;8528;49.976;11.858;2022-10-22T06:38:06;11.40;99.90
16823;DHT22;8528;49.976;11.858;2022-10-22T06:40:37;11.50;99.90
16823;DHT22;8528;49.976;11.858;2022-10-22T06:43:04;11.50;99.90
16823;DHT22;8528;49.976;11.858;2022-10-22T06:45:31;11.50;99.90
16823;DHT22;8528;49.976;11.858;2022-10-22T06:47:58;11.50;99.90
16823;DHT22;8528;49.976;11.858;2022-10-22T06:50:25;11.50;99.90
16823;DHT22;8528;49.976;11.858;2022-10-22T06:52:51;11.60;99.90
16823;DHT22;8528;49.976;11.858;2022-10-22T06:55:18;11.50;99.90
16823;DHT22;8528;49.976;11.858;2022-10-22T06:57:45;11.60;99.90
16823;DHT22;8528;49.976;11.858;2022-10-22T07:00:14;11.60;99.90
16823;DHT22;8528;49.976;11.858;2022-10-22T07:02:40;11.60;99.90
16823;DHT22;8528;49.976;11.858;2022-10-22T07:05:08;11.60;99.90
16823;DHT22;8528;49.976;11.858;2022-10-22T07:07:34;11.60;99.90
16823;DHT22;8528;49.976;11.858;2022-10-22T07:10:01;11.60;99.90
16823;DHT22;8528;49.976;11.858;2022-10-22T07:12:28;11.60;99.90
16823;DHT22;8528;49.976;11.858;2022-10-22T07:14:55;11.60;99.90
16823;DHT22;8528;49.976;11.858;2022-10-22T07:17:22;11.70;99.90
16823;DHT22;8528;49.976;11.858;2022-10-22T07:19:48;11.70;99.90
16823;DHT22;8528;49.976;11.858;2022-10-22T07:22:17;11.70;99.90
16823;DHT22;8528;49.976;11.858;2022-10-22T07:24:45;11.80;99.90
16823;DHT22;8528;49.976;11.858;2022-10-22T07:27:12;11.80;99.90
16823;DHT22;8528;49.976;11.858;2022-10-22T07:29:38;11.80;99.90
16823;DHT22;8528;49.976;11.858;2022-10-22T07:32:05;11.80;99.90
16823;DHT22;8528;49.976;11.858;2022-10-22T07:34:32;11.90;99.90
16823;DHT22;8528;49.976;11.858;2022-10-22T07:36:59;11.80;99.90
16823;DHT22;8528;49.976;11.858;2022-10-22T07:39:26;11.80;99.90
16823;DHT22;8528;49.976;11.858;2022-10-22T07:41:53;11.70;99.90
16823;DHT22;8528;49.976;11.858;2022-10-22T07:44:20;11.70;99.90
16823;DHT22;8528;49.976;11.858;2022-10-22T07:46:47;11.70;99.90
16823;DHT22;8528;49.976;11.858;2022-10-22T07:49:14;11.70;99.90
16823;DHT22;8528;49.976;11.858;2022-10-22T07:51:41;11.80;99.90
16823;DHT22;8528;49.976;11.858;2022-10-22T07:54:08;11.80;99.90
16823;DHT22;8528;49.976;11.858;2022-10-22T07:56:34;11.80;99.90
16823;DHT22;8528;49.976;11.858;2022-10-22T07:59:01;11.80;99.90
16823;DHT22;8528;49.976;11.858;2022-10-22T08:01:33;11.80;99.90
16823;DHT22;8528;49.976;11.858;2022-10-22T08:04:00;11.80;99.90
16823;DHT22;8528;49.976;11.858;2022-10-22T08:06:28;11.80;99.90
16823;DHT22;8528;49.976;11.858;2022-10-22T08:08:55;11.90;99.90
16823;DHT22;8528;49.976;11.858;2022-10-22T08:11:22;11.90;99.90
16823;DHT22;8528;49.976;11.858;2022-10-22T08:13:49;11.90;99.90
16823;DHT22;8528;49.976;11.858;2022-10-22T08:16:16;11.90;99.90
16823;DHT22;8528;49.976;11.858;2022-10-22T08:18:42;12.00;99.90
16823;DHT22;8528;49.976;11.858;2022-10-22T08:21:11;12.00;99.90
16823;DHT22;8528;49.976;11.858;2022-10-22T08:23:38;11.90;99.90
16823;DHT22;8528;49.976;11.858;2022-10-22T08:26:04;11.90;99.90
16823;DHT22;8528;49.976;11.858;2022-10-22T08:28:31;12.00;99.90
16823;DHT22;8528;49.976;11.858;2022-10-22T08:31:07;12.00;99.90
16823;DHT22;8528;49.976;11.858;2022-10-22T08:33:34;12.10;99.90
16823;DHT22;8528;49.976;11.858;2022-10-22T08:36:01;12.20;99.90
16823;DHT22;8528;49.976;11.858;2022-10-22T08:38:28;12.30;99.90
16823;DHT22;8528;49.976;11.858;2022-10-22T08:41:06;12.40;99.90
16823;DHT22;8528;49.976;11.858;2022-10-22T08:49:02;12.50;99.90
16823;DHT22;8528;49.976;11.858;2022-10-22T08:51:35;12.60;99.90
16823;DHT22;8528;49.976;11.858;2022-10-22T08:54:25;12.70;99.90
16823;DHT22;8528;49.976;11.858;2022-10-22T09:02:39;12.80;99.90
16823;DHT22;8528;49.976;11.858;2022-10-22T09:08:10;13.30;99.90
16823;DHT22;8528;49.976;11.858;2022-10-22T09:10:43;13.40;99.90
16823;DHT22;8528;49.976;11.858;2022-10-22T09:13:15;13.40;99.90
16823;DHT22;8528;49.976;11.858;2022-10-22T09:15:47;13.40;99.90
16823;DHT22;8528;49.976;11.858;2022-10-22T09:18:29;13.50;99.90
16823;DHT22;8528;49.976;11.858;2022-10-22T09:21:30;13.60;99.90
16823;DHT22;8528;49.976;11.858;2022-10-22T09:24:10;13.50;99.90
16823;DHT22;8528;49.976;11.858;2022-10-22T09:26:39;13.40;99.90
16823;DHT22;8528;49.976;11.858;2022-10-22T09:29:12;13.30;99.90
16823;DHT22;8528;49.976;11.858;2022-10-22T09:31:41;13.30;99.90
16823;DHT22;8528;49.976;11.858;2022-10-22T09:34:07;13.40;99.90
16823;DHT22;8528;49.976;11.858;2022-10-22T09:36:34;13.10;99.90
16823;DHT22;8528;49.976;11.858;2022-10-22T09:39:24;13.10;99.90
16823;DHT22;8528;49.976;11.858;2022-10-22T09:41:51;13.10;99.90
16823;DHT22;8528;49.976;11.858;2022-10-22T09:44:19;13.30;99.90
16823;DHT22;8528;49.976;11.858;2022-10-22T09:46:46;13.20;99.90
16823;DHT22;8528;49.976;11.858;2022-10-22T09:49:16;13.20;99.90
16823;DHT22;8528;49.976;11.858;2022-10-22T09:51:54;13.40;99.90
16823;DHT22;8528;49.976;11.858;2022-10-22T09:54:24;13.40;99.90
16823;DHT22;8528;49.976;11.858;2022-10-22T09:57:03;13.40;99.90
16823;DHT22;8528;49.976;11.858;2022-10-22T09:59:41;13.60;99.90
16823;DHT22;8528;49.976;11.858;2022-10-22T10:02:15;13.90;99.90
16823;DHT22;8528;49.976;11.858;2022-10-22T10:05:03;13.90;99.90
16823;DHT22;8528;49.976;11.858;2022-10-22T10:07:32;14.10;99.90
16823;DHT22;8528;49.976;11.858;2022-10-22T10:09:59;13.90;99.90
16823;DHT22;8528;49.976;11.858;2022-10-22T10:15:28;13.90;99.90
16823;DHT22;8528;49.976;11.858;2022-10-22T10:26:00;14.00;99.90
16823;DHT22;8528;49.976;11.858;2022-10-22T10:28:48;14.10;99.90
16823;DHT22;8528;49.976;11.858;2022-10-22T10:31:48;14.00;99.90
16823;DHT22;8528;49.976;11.858;2022-10-22T10:37:29;14.30;99.90
16823;DHT22;8528;49.976;11.858;2022-10-22T10:40:03;14.30;99.90
16823;DHT22;8528;49.976;11.858;2022-10-22T10:45:15;14.40;99.90
16823;DHT22;8528;49.976;11.858;2022-10-22T10:50:59;14.20;99.90
16823;DHT22;8528;49.976;11.858;2022-10-22T10:53:46;14.30;99.90
16823;DHT22;8528;49.976;11.858;2022-10-22T10:56:35;14.30;99.90
16823;DHT22;8528;49.976;11.858;2022-10-22T11:07:08;14.70;99.90
16823;DHT22;8528;49.976;11.858;2022-10-22T11:10:12;14.50;99.90
16823;DHT22;8528;49.976;11.858;2022-10-22T11:12:45;14.40;99.90
16823;DHT22;8528;49.976;11.858;2022-10-22T11:15:27;14.50;99.90
16823;DHT22;8528;49.976;11.858;2022-10-22T11:26:04;15.00;99.90
16823;DHT22;8528;49.976;11.858;2022-10-22T11:28:39;15.00;99.90
16823;DHT22;8528;49.976;11.858;2022-10-22T11:31:13;15.00;99.90
16823;DHT22;8528;49.976;11.858;2022-10-22T11:36:39;14.70;99.90
16823;DHT22;8528;49.976;11.858;2022-10-22T11:40:09;14.70;99.90
16823;DHT22;8528;49.976;11.858;2022-10-22T11:42:30;14.60;99.90
16823;DHT22;8528;49.976;11.858;2022-10-22T12:11:39;14.70;99.90
16823;DHT22;8528;49.976;11.858;2022-10-22T12:14:50;14.50;99.90
16823;DHT22;8528;49.976;11.858;2022-10-22T12:17:20;14.30;99.90
16823;DHT22;8528;49.976;11.858;2022-10-22T12:20:00;14.10;99.90
16823;DHT22;8528;49.976;11.858;2022-10-22T12:22:31;14.10;99.90
16823;DHT22;8528;49.976;11.858;2022-10-22T12:25:08;14.00;99.90
16823;DHT22;8528;49.976;11.858;2022-10-22T12:27:40;13.90;99.90
16823;DHT22;8528;49.976;11.858;2022-10-22T12:30:32;13.90;99.90
16823;DHT22;8528;49.976;11.858;2022-10-22T12:33:03;13.80;99.90
16823;DHT22;8528;49.976;11.858;2022-10-22T12:35:41;13.80;99.90
16823;DHT22;8528;49.976;11.858;2022-10-22T12:38:15;14.20;99.90
16823;DHT22;8528;49.976;11.858;2022-10-22T12:40:43;14.60;99.90
16823;DHT22;8528;49.976;11.858;2022-10-22T12:43:22;14.70;99.90
16823;DHT22;8528;49.976;11.858;2022-10-22T12:45:50;14.80;99.90
16823;DHT22;8528;49.976;11.858;2022-10-22T12:48:31;14.60;99.90
16823;DHT22;8528;49.976;11.858;2022-10-22T12:51:02;14.50;99.90
16823;DHT22;8528;49.976;11.858;2022-10-22T12:53:35;14.40;99.90
16823;DHT22;8528;49.976;11.858;2022-10-22T12:56:11;14.50;99.90
16823;DHT22;8528;49.976;11.858;2022-10-22T12:58:51;14.70;99.90
16823;DHT22;8528;49.976;11.858;2022-10-22T13:01:18;14.60;99.90
16823;DHT22;8528;49.976;11.858;2022-10-22T13:03:49;14.40;99.90
16823;DHT22;8528;49.976;11.858;2022-10-22T13:09:15;14.50;99.90
16823;DHT22;8528;49.976;11.858;2022-10-22T13:12:01;14.70;99.90
16823;DHT22;8528;49.976;11.858;2022-10-22T13:22:37;14.60;99.90
16823;DHT22;8528;49.976;11.858;2022-10-22T13:30:33;14.70;99.90
16823;DHT22;8528;49.976;11.858;2022-10-22T13:33:16;14.70;99.90
16823;DHT22;8528;49.976;11.858;2022-10-22T13:35:48;14.80;99.90
16823;DHT22;8528;49.976;11.858;2022-10-22T13:38:19;15.00;99.90
16823;DHT22;8528;49.976;11.858;2022-10-22T13:40:47;15.20;99.90
16823;DHT22;8528;49.976;11.858;2022-10-22T13:43:15;15.40;99.90
16823;DHT22;8528;49.976;11.858;2022-10-22T13:45:42;15.60;99.90
16823;DHT22;8528;49.976;11.858;2022-10-22T13:48:17;15.90;99.90
16823;DHT22;8528;49.976;11.858;2022-10-22T13:50:45;15.90;99.90
16823;DHT22;8528;49.976;11.858;2022-10-22T13:53:21;15.90;99.90
16823;DHT22;8528;49.976;11.858;2022-10-22T13:55:48;15.80;99.90
16823;DHT22;8528;49.976;11.858;2022-10-22T13:58:18;15.50;99.90
16823;DHT22;8528;49.976;11.858;2022-10-22T14:00:48;15.20;99.90
16823;DHT22;8528;49.976;11.858;2022-10-22T14:03:19;15.00;99.90
16823;DHT22;8528;49.976;11.858;2022-10-22T14:05:47;14.70;99.90
16823;DHT22;8528;49.976;11.858;2022-10-22T14:08:17;14.40;99.90
16823;DHT22;8528;49.976;11.858;2022-10-22T14:10:46;14.20;99.90
16823;DHT22;8528;49.976;11.858;2022-10-22T14:13:15;14.10;99.90
16823;DHT22;8528;49.976;11.858;2022-10-22T14:15:44;14.10;99.90
16823;DHT22;8528;49.976;11.858;2022-10-22T14:18:14;14.10;99.90
16823;DHT22;8528;49.976;11.858;2022-10-22T14:20:45;14.20;99.90
16823;DHT22;8528;49.976;11.858;2022-10-22T14:23:20;14.20;99.90
16823;DHT22;8528;49.976;11.858;2022-10-22T14:25:48;14.20;99.90
16823;DHT22;8528;49.976;11.858;2022-10-22T14:28:17;14.20;99.90
16823;DHT22;8528;49.976;11.858;2022-10-22T14:30:45;14.20;99.90
16823;DHT22;8528;49.976;11.858;2022-10-22T14:33:18;14.10;99.90
16823;DHT22;8528;49.976;11.858;2022-10-22T14:35:49;14.10;99.90
16823;DHT22;8528;49.976;11.858;2022-10-22T14:38:16;14.00;99.90
16823;DHT22;8528;49.976;11.858;2022-10-22T14:40:46;14.00;99.90
16823;DHT22;8528;49.976;11.858;2022-10-22T14:43:19;14.00;99.90
16823;DHT22;8528;49.976;11.858;2022-10-22T14:45:47;14.10;99.90
16823;DHT22;8528;49.976;11.858;2022-10-22T14:48:13;14.20;99.90
16823;DHT22;8528;49.976;11.858;2022-10-22T14:51:01;14.20;99.90
16823;DHT22;8528;49.976;11.858;2022-10-22T14:53:28;14.20;99.90
16823;DHT22;8528;49.976;11.858;2022-10-22T14:55:55;14.20;99.90
16823;DHT22;8528;49.976;11.858;2022-10-22T14:58:25;14.20;99.90
16823;DHT22;8528;49.976;11.858;2022-10-22T15:00:52;14.10;99.90
16823;DHT22;8528;49.976;11.858;2022-10-22T15:03:19;14.10;99.90
16823;DHT22;8528;49.976;11.858;2022-10-22T15:05:45;14.10;99.90
16823;DHT22;8528;49.976;11.858;2022-10-22T15:08:19;14.00;99.90
16823;DHT22;8528;49.976;11.858;2022-10-22T15:10:57;14.00;99.90
16823;DHT22;8528;49.976;11.858;2022-10-22T15:13:25;14.00;99.90
16823;DHT22;8528;49.976;11.858;2022-10-22T15:15:55;13.90;99.90
16823;DHT22;8528;49.976;11.858;2022-10-22T15:18:22;13.80;99.90
16823;DHT22;8528;49.976;11.858;2022-10-22T15:21:12;13.70;99.90
16823;DHT22;8528;49.976;11.858;2022-10-22T15:23:39;13.50;99.90
16823;DHT22;8528;49.976;11.858;2022-10-22T15:26:07;13.40;99.90
16823;DHT22;8528;49.976;11.858;2022-10-22T15:28:35;13.20;99.90
16823;DHT22;8528;49.976;11.858;2022-10-22T15:31:02;13.10;99.90
16823;DHT22;8528;49.976;11.858;2022-10-22T15:33:29;13.00;99.90
16823;DHT22;8528;49.976;11.858;2022-10-22T15:35:56;12.90;99.90
16823;DHT22;8528;49.976;11.858;2022-10-22T15:38:26;12.70;99.90
16823;DHT22;8528;49.976;11.858;2022-10-22T15:41:00;12.60;99.90
16823;DHT22;8528;49.976;11.858;2022-10-22T15:43:32;12.40;99.90
16823;DHT22;8528;49.976;11.858;2022-10-22T15:46:08;12.30;99.90
16823;DHT22;8528;49.976;11.858;2022-10-22T15:48:45;12.20;99.90
16823;DHT22;8528;49.976;11.858;2022-10-22T15:51:17;12.10;99.90
16823;DHT22;8528;49.976;11.858;2022-10-22T15:53:53;12.00;99.90
16823;DHT22;8528;49.976;11.858;2022-10-22T15:56:21;11.90;99.90
16823;DHT22;8528;49.976;11.858;2022-10-22T15:58:58;11.80;99.90
16823;DHT22;8528;49.976;11.858;2022-10-22T16:01:25;11.70;99.90
16823;DHT22;8528;49.976;11.858;2022-10-22T16:03:53;11.60;99.90
16823;DHT22;8528;49.976;11.858;2022-10-22T16:06:31;11.40;99.90
16823;DHT22;8528;49.976;11.858;2022-10-22T16:09:04;11.20;99.90
16823;DHT22;8528;49.976;11.858;2022-10-22T16:11:31;11.20;99.90
16823;DHT22;8528;49.976;11.858;2022-10-22T16:13:59;11.00;99.90
16823;DHT22;8528;49.976;11.858;2022-10-22T16:16:29;10.90;99.90
16823;DHT22;8528;49.976;11.858;2022-10-22T16:18:57;10.80;99.90
16823;DHT22;8528;49.976;11.858;2022-10-22T16:21:24;10.70;99.90
16823;DHT22;8528;49.976;11.858;2022-10-22T16:23:52;10.60;99.90
16823;DHT22;8528;49.976;11.858;2022-10-22T16:26:19;10.60;99.90
16823;DHT22;8528;49.976;11.858;2022-10-22T16:28:47;10.50;99.90
16823;DHT22;8528;49.976;11.858;2022-10-22T16:31:16;10.50;99.90
16823;DHT22;8528;49.976;11.858;2022-10-22T16:33:43;10.50;99.90
16823;DHT22;8528;49.976;11.858;2022-10-22T16:36:17;10.60;99.90
16823;DHT22;8528;49.976;11.858;2022-10-22T16:38:45;10.60;99.90
16823;DHT22;8528;49.976;11.858;2022-10-22T16:41:18;10.60;99.90
16823;DHT22;8528;49.976;11.858;2022-10-22T16:43:46;10.60;99.90
16823;DHT22;8528;49.976;11.858;2022-10-22T16:46:18;10.60;99.90
16823;DHT22;8528;49.976;11.858;2022-10-22T16:48:51;10.70;99.90
16823;DHT22;8528;49.976;11.858;2022-10-22T16:51:20;10.70;99.90
16823;DHT22;8528;49.976;11.858;2022-10-22T16:53:51;10.60;99.90
16823;DHT22;8528;49.976;11.858;2022-10-22T16:56:18;10.50;99.90
16823;DHT22;8528;49.976;11.858;2022-10-22T16:58:54;10.50;99.90
16823;DHT22;8528;49.976;11.858;2022-10-22T17:01:22;10.30;99.90
16823;DHT22;8528;49.976;11.858;2022-10-22T17:03:52;10.20;99.90
16823;DHT22;8528;49.976;11.858;2022-10-22T17:06:23;10.10;99.90
16823;DHT22;8528;49.976;11.858;2022-10-22T17:08:51;10.10;99.90
16823;DHT22;8528;49.976;11.858;2022-10-22T17:11:20;10.00;99.90
16823;DHT22;8528;49.976;11.858;2022-10-22T17:13:51;10.00;99.90
16823;DHT22;8528;49.976;11.858;2022-10-22T17:16:22;9.90;99.90
16823;DHT22;8528;49.976;11.858;2022-10-22T17:18:51;9.80;99.90
16823;DHT22;8528;49.976;11.858;2022-10-22T17:21:19;9.80;99.90
16823;DHT22;8528;49.976;11.858;2022-10-22T17:23:46;9.70;99.90
16823;DHT22;8528;49.976;11.858;2022-10-22T17:26:20;9.70;99.90
16823;DHT22;8528;49.976;11.858;2022-10-22T17:28:49;9.80;99.90
16823;DHT22;8528;49.976;11.858;2022-10-22T17:31:30;9.80;99.90
16823;DHT22;8528;49.976;11.858;2022-10-22T17:34:03;9.80;99.90
16823;DHT22;8528;49.976;11.858;2022-10-22T17:36:30;9.90;99.90
16823;DHT22;8528;49.976;11.858;2022-10-22T17:39:04;9.90;99.90
16823;DHT22;8528;49.976;11.858;2022-10-22T17:41:33;10.00;99.90
16823;DHT22;8528;49.976;11.858;2022-10-22T17:44:03;10.00;99.90
16823;DHT22;8528;49.976;11.858;2022-10-22T17:46:31;10.10;99.90
16823;DHT22;8528;49.976;11.858;2022-10-22T17:49:00;10.10;99.90
16823;DHT22;8528;49.976;11.858;2022-10-22T17:51:28;10.00;99.90